createdAt,value
2018-01-13T00:00:57.150Z,24.02
2018-01-13T00:03:23.726Z,21.65
2018-01-13T00:05:50.323Z,23.30
2018-01-13T00:08:16.908Z,22.80
2018-01-13T00:10:43.490Z,23.17
2018-01-13T00:13:10.079Z,22.42
2018-01-13T00:15:36.658Z,22.27
2018-01-13T00:18:03.262Z,20.73
2018-01-13T00:20:29.841Z,22.80
2018-01-13T00:22:56.427Z,21.40
2018-01-13T00:25:23.322Z,22.05
2018-01-13T00:27:50.059Z,19.48
2018-01-13T00:30:16.642Z,19.45
2018-01-13T00:32:43.322Z,19.42
2018-01-13T00:35:09.898Z,21.70
2018-01-13T00:37:36.484Z,19.98
2018-01-13T00:40:03.082Z,20.23
2018-01-13T00:42:29.666Z,21.25
2018-01-13T00:44:56.246Z,19.48
2018-01-13T00:47:22.830Z,21.55
2018-01-13T00:49:49.406Z,23.95
2018-01-13T00:52:16.019Z,21.02
2018-01-13T00:54:42.603Z,21.98
2018-01-13T00:57:09.178Z,20.17
2018-01-13T00:59:35.803Z,22.77
2018-01-13T01:02:02.375Z,22.20
2018-01-13T01:04:28.960Z,22.20
2018-01-13T01:06:55.551Z,21.02
2018-01-13T01:09:22.127Z,20.40
2018-01-13T01:11:48.718Z,21.85
2018-01-13T01:14:15.281Z,21.92
2018-01-13T01:16:42.076Z,20.30
2018-01-13T01:19:08.642Z,19.80
2018-01-13T01:21:35.235Z,21.12
2018-01-13T01:24:01.811Z,21.20
2018-01-13T01:26:28.390Z,22.08
2018-01-13T01:28:54.998Z,21.15
2018-01-13T01:31:21.571Z,22.25
2018-01-13T01:33:48.147Z,21.52
2018-01-13T01:36:14.752Z,22.60
2018-01-13T01:38:41.326Z,21.92
2018-01-13T01:41:07.902Z,22.40
2018-01-13T01:43:34.863Z,21.17
2018-01-13T01:46:01.443Z,21.58
2018-01-13T01:48:28.062Z,22.50
2018-01-13T01:50:54.646Z,19.95
2018-01-13T01:53:21.230Z,20.83
2018-01-13T01:55:47.826Z,20.75
2018-01-13T01:58:14.410Z,20.08
2018-01-13T02:00:41.091Z,22.08
2018-01-13T02:03:07.670Z,21.17
2018-01-13T02:05:34.258Z,19.40
2018-01-13T02:08:00.838Z,21.20
2018-01-13T02:10:27.424Z,21.70
2018-01-13T02:12:54.013Z,20.80
2018-01-13T02:15:20.599Z,19.90
2018-01-13T02:17:47.178Z,20.65
2018-01-13T02:20:13.764Z,19.85
2018-01-13T02:22:40.630Z,21.45
2018-01-13T02:25:07.217Z,20.60
2018-01-13T02:27:33.802Z,20.40
2018-01-13T02:30:00.402Z,20.58
2018-01-13T02:32:26.986Z,21.17
2018-01-13T02:34:53.566Z,22.00
2018-01-13T02:37:20.443Z,22.15
2018-01-13T02:39:47.024Z,21.83
2018-01-13T02:42:13.604Z,23.08
2018-01-13T02:44:40.464Z,21.70
2018-01-13T02:47:07.048Z,20.85
2018-01-13T02:49:33.627Z,21.70
2018-01-13T02:52:00.236Z,23.98
2018-01-13T02:54:26.815Z,22.27
2018-01-13T02:56:53.398Z,23.15
2018-01-13T02:59:20.000Z,24.23
2018-01-13T03:01:46.577Z,23.40
2018-01-13T03:04:13.152Z,23.02
2018-01-13T03:06:39.747Z,23.50
2018-01-13T03:09:06.318Z,23.23
2018-01-13T03:11:32.902Z,24.40
2018-01-13T03:13:59.499Z,24.55
2018-01-13T03:16:26.077Z,25.08
2018-01-13T03:18:52.666Z,24.83
2018-01-13T03:21:19.257Z,24.45
2018-01-13T03:23:45.838Z,25.45
2018-01-13T03:26:12.428Z,25.88
2018-01-13T03:28:39.011Z,25.58
2018-01-13T03:31:05.592Z,23.08
2018-01-13T03:33:32.186Z,24.90
2018-01-13T03:35:58.767Z,25.45
2018-01-13T03:38:25.343Z,24.80
2018-01-13T03:40:52.194Z,25.00
2018-01-13T03:43:18.777Z,25.30
2018-01-13T03:45:45.352Z,26.10
2018-01-13T03:48:11.965Z,26.37
2018-01-13T03:50:38.551Z,26.75
2018-01-13T03:53:05.126Z,27.05
2018-01-13T03:55:31.702Z,24.95
2018-01-13T03:57:58.287Z,22.67
2018-01-13T04:00:24.887Z,26.85
2018-01-13T04:02:51.468Z,28.40
2018-01-13T04:05:18.043Z,27.02
2018-01-13T04:07:44.662Z,27.00
2018-01-13T04:10:11.256Z,26.05
2018-01-13T04:12:37.835Z,26.62
2018-01-13T04:15:04.452Z,26.17
2018-01-13T04:17:31.041Z,27.48
2018-01-13T04:19:57.622Z,31.45
2018-01-13T04:22:24.226Z,28.55
2018-01-13T04:24:50.807Z,27.60
2018-01-13T04:27:17.393Z,27.55
2018-01-13T04:29:44.097Z,28.62
2018-01-13T04:32:10.672Z,26.87
2018-01-13T04:34:37.252Z,28.48
2018-01-13T04:37:04.074Z,29.85
2018-01-13T04:39:30.654Z,30.20
2018-01-13T04:41:57.240Z,29.12
2018-01-13T04:44:23.832Z,30.17
2018-01-13T04:46:50.428Z,31.45
2018-01-13T04:49:17.006Z,31.58
2018-01-13T04:51:43.626Z,30.48
2018-01-13T04:54:10.202Z,31.60
2018-01-13T04:56:36.782Z,32.53
2018-01-13T04:59:03.358Z,28.70
2018-01-13T05:01:29.976Z,30.00
2018-01-13T05:03:56.551Z,30.67
2018-01-13T05:06:23.130Z,32.15
2018-01-13T05:08:49.739Z,30.95
2018-01-13T05:11:16.309Z,30.75
2018-01-13T05:13:42.886Z,31.00
2018-01-13T05:16:09.474Z,32.63
2018-01-13T05:18:36.062Z,31.87
2018-01-13T05:21:02.642Z,31.92
2018-01-13T05:23:29.543Z,30.67
2018-01-13T05:25:56.123Z,31.75
2018-01-13T05:28:22.708Z,30.88
2018-01-13T05:30:49.286Z,31.25
2018-01-13T05:33:15.874Z,33.38
2018-01-13T05:35:42.501Z,34.35
2018-01-13T05:38:09.078Z,31.23
2018-01-13T05:40:35.661Z,32.33
2018-01-13T05:43:02.625Z,33.17
2018-01-13T05:45:29.210Z,35.95
2018-01-13T05:47:55.790Z,34.78
2018-01-13T05:50:22.402Z,30.67
2018-01-13T05:52:48.984Z,33.83
2018-01-13T05:55:15.560Z,31.85
2018-01-13T05:57:42.145Z,33.72
2018-01-13T06:00:08.714Z,32.80
2018-01-13T06:02:35.297Z,34.67
2018-01-13T06:05:01.896Z,35.55
2018-01-13T06:07:28.471Z,32.35
2018-01-13T06:09:55.052Z,34.70
2018-01-13T06:12:21.659Z,33.97
2018-01-13T06:14:48.239Z,34.75
2018-01-13T06:17:14.832Z,34.28
2018-01-13T06:19:41.414Z,32.85
2018-01-13T06:22:07.998Z,36.17
2018-01-13T06:24:34.702Z,33.00
2018-01-13T06:27:01.279Z,35.90
2018-01-13T06:29:27.855Z,34.28
2018-01-13T06:31:54.555Z,36.08
2018-01-13T06:34:21.127Z,34.80
2018-01-13T06:36:47.707Z,34.85
2018-01-13T06:39:14.359Z,36.50
2018-01-13T06:41:40.895Z,35.22
2018-01-13T06:44:07.471Z,33.33
2018-01-13T06:46:34.330Z,33.55
2018-01-13T06:49:00.907Z,31.27
2018-01-13T06:51:27.486Z,36.60
2018-01-13T06:53:54.077Z,36.22
2018-01-13T06:56:20.668Z,36.88
2018-01-13T06:58:47.284Z,39.53
2018-01-13T07:01:13.869Z,37.42
2018-01-13T07:03:40.439Z,35.33
2018-01-13T07:06:07.055Z,38.17
2018-01-13T07:08:33.679Z,36.92
2018-01-13T07:11:00.259Z,38.58
2018-01-13T07:13:26.962Z,37.13
2018-01-13T07:15:53.551Z,36.53
2018-01-13T07:18:20.130Z,39.42
2018-01-13T07:20:46.726Z,39.13
2018-01-13T07:23:13.317Z,39.63
2018-01-13T07:25:39.895Z,35.70
2018-01-13T07:28:06.842Z,36.60
2018-01-13T07:30:33.431Z,36.72
2018-01-13T07:33:00.023Z,37.78
2018-01-13T07:35:26.615Z,36.58
2018-01-13T07:37:53.183Z,36.58
2018-01-13T07:40:19.791Z,39.67
2018-01-13T07:42:46.371Z,38.78
2018-01-13T07:45:12.953Z,37.13
2018-01-13T07:47:39.563Z,37.42
2018-01-13T07:50:06.143Z,36.58
2018-01-13T07:52:32.728Z,34.33
2018-01-13T07:54:59.327Z,41.20
2018-01-13T07:57:25.910Z,39.20
2018-01-13T07:59:52.496Z,37.70
2018-01-13T08:02:19.118Z,38.40
2018-01-13T08:04:45.706Z,36.65
2018-01-13T08:07:12.292Z,36.30
2018-01-13T08:09:38.887Z,38.20
2018-01-13T08:12:05.470Z,38.08
2018-01-13T08:14:32.061Z,37.47
2018-01-13T08:16:58.668Z,35.83
2018-01-13T08:19:25.247Z,34.25
2018-01-13T08:21:51.831Z,38.20
2018-01-13T08:24:18.443Z,35.10
2018-01-13T08:26:45.024Z,35.70
2018-01-13T08:29:11.610Z,36.13
2018-01-13T08:31:38.211Z,34.03
2018-01-13T08:34:04.786Z,38.35
2018-01-13T08:36:31.363Z,37.08
2018-01-13T08:38:57.971Z,38.50
2018-01-13T08:41:24.543Z,34.08
2018-01-13T08:43:51.125Z,36.35
2018-01-13T08:46:17.970Z,36.17
2018-01-13T08:48:44.559Z,33.60
2018-01-13T08:51:11.147Z,35.88
2018-01-13T08:53:37.771Z,35.05
2018-01-13T08:56:04.715Z,35.53
2018-01-13T08:58:31.286Z,34.53
2018-01-13T09:00:57.891Z,36.95
2018-01-13T09:03:24.472Z,35.03
2018-01-13T09:05:51.290Z,35.78
2018-01-13T09:08:17.966Z,36.20
2018-01-13T09:10:44.547Z,34.72
2018-01-13T09:13:11.353Z,38.50
2018-01-13T09:15:38.034Z,35.58
2018-01-13T09:18:04.614Z,35.05
2018-01-13T09:20:31.190Z,36.58
2018-01-13T09:22:57.790Z,37.17
2018-01-13T09:25:24.384Z,31.27
2018-01-13T09:27:50.969Z,34.17
2018-01-13T09:30:17.570Z,35.15
2018-01-13T09:32:44.157Z,35.28
2018-01-13T09:35:10.731Z,35.15
2018-01-13T09:37:37.418Z,37.53
2018-01-13T09:40:04.003Z,38.63
2018-01-13T09:42:30.590Z,34.03
2018-01-13T09:44:57.184Z,35.72
2018-01-13T09:47:23.763Z,33.63
2018-01-13T09:49:50.343Z,34.33
2018-01-13T09:52:16.954Z,34.65
2018-01-13T09:54:43.516Z,34.22
2018-01-13T09:57:10.099Z,35.00
2018-01-13T09:59:36.708Z,33.97
2018-01-13T10:02:03.287Z,33.10
2018-01-13T10:04:29.871Z,32.25
2018-01-13T10:06:56.462Z,33.17
2018-01-13T10:09:23.042Z,36.05
2018-01-13T10:11:49.622Z,34.20
2018-01-13T10:14:17.062Z,34.03
2018-01-13T10:16:43.639Z,33.17
2018-01-13T10:19:10.224Z,31.80
2018-01-13T10:21:36.807Z,34.35
2018-01-13T10:24:03.392Z,38.20
2018-01-13T10:26:29.967Z,35.83
2018-01-13T10:28:56.557Z,33.58
2018-01-13T10:31:23.143Z,33.50
2018-01-13T10:33:49.725Z,36.85
2018-01-13T10:36:16.306Z,33.30
2018-01-13T10:38:43.126Z,35.30
2018-01-13T10:41:09.727Z,33.63
2018-01-13T10:43:36.307Z,32.63
2018-01-13T10:46:02.883Z,34.58
2018-01-13T10:48:29.666Z,35.40
2018-01-13T10:50:56.247Z,33.53
2018-01-13T10:53:22.822Z,35.63
2018-01-13T10:55:49.699Z,35.58
2018-01-13T10:58:16.269Z,36.58
2018-01-13T11:00:42.852Z,36.10
2018-01-13T11:03:09.461Z,36.55
2018-01-13T11:05:36.040Z,34.08
2018-01-13T11:08:02.623Z,38.17
2018-01-13T11:10:29.242Z,37.95
2018-01-13T11:12:55.817Z,36.58
2018-01-13T11:15:22.397Z,37.00
2018-01-13T11:17:49.306Z,36.53
2018-01-13T11:20:15.878Z,35.22
2018-01-13T11:22:42.459Z,35.22
2018-01-13T11:25:09.067Z,35.83
2018-01-13T11:27:35.652Z,38.00
2018-01-13T11:30:02.232Z,36.78
2018-01-13T11:32:28.835Z,34.35
2018-01-13T11:34:55.406Z,37.30
2018-01-13T11:37:22.007Z,33.97
2018-01-13T11:39:48.591Z,35.38
2018-01-13T11:42:15.175Z,42.47
2018-01-13T11:44:41.755Z,36.47
2018-01-13T11:47:08.339Z,34.08
2018-01-13T11:49:34.915Z,40.03
2018-01-13T11:52:01.822Z,34.00
2018-01-13T11:54:28.391Z,34.10
2018-01-13T11:56:54.968Z,36.40
2018-01-13T11:59:21.674Z,34.45
2018-01-13T12:01:48.312Z,38.00
2018-01-13T12:04:14.843Z,33.67
2018-01-13T12:06:41.433Z,36.30
2018-01-13T12:09:08.013Z,34.20
2018-01-13T12:11:34.586Z,36.20
2018-01-13T12:14:01.294Z,37.78
2018-01-13T12:16:27.867Z,35.58
2018-01-13T12:18:54.454Z,37.42
2018-01-13T12:21:21.064Z,36.35
2018-01-13T12:23:47.647Z,37.25
2018-01-13T12:26:14.231Z,39.33
2018-01-13T12:28:40.819Z,39.15
2018-01-13T12:31:07.398Z,38.22
2018-01-13T12:33:33.978Z,36.85
2018-01-13T12:36:00.575Z,35.55
2018-01-13T12:38:27.155Z,36.00
2018-01-13T12:40:53.739Z,35.92
2018-01-13T12:43:20.642Z,35.55
2018-01-13T12:45:47.227Z,40.53
2018-01-13T12:48:13.806Z,36.50
2018-01-13T12:50:40.393Z,37.63
2018-01-13T12:53:06.979Z,36.95
2018-01-13T12:55:33.566Z,36.88
2018-01-13T12:58:00.146Z,37.65
2018-01-13T13:00:26.731Z,37.85
2018-01-13T13:02:53.347Z,36.92
2018-01-13T13:05:19.922Z,35.45
2018-01-13T13:07:46.505Z,37.42
2018-01-13T13:10:13.115Z,37.75
2018-01-13T13:12:39.694Z,41.25
2018-01-13T13:15:06.271Z,38.15
2018-01-13T13:17:33.240Z,36.67
2018-01-13T13:19:59.819Z,36.20
2018-01-13T13:22:26.399Z,32.70
2018-01-13T13:24:53.346Z,34.38
2018-01-13T13:27:19.922Z,37.15
2018-01-13T13:29:46.499Z,35.90
2018-01-13T13:32:13.089Z,36.00
2018-01-13T13:34:39.667Z,35.17
2018-01-13T13:37:06.242Z,34.40
2018-01-13T13:39:32.837Z,33.88
2018-01-13T13:41:59.417Z,36.65
2018-01-13T13:44:25.994Z,33.72
2018-01-13T13:46:52.607Z,34.90
2018-01-13T13:49:19.205Z,34.40
2018-01-13T13:51:45.776Z,34.17
2018-01-13T13:54:12.389Z,32.67
2018-01-13T13:56:38.983Z,33.97
2018-01-13T13:59:05.567Z,33.15
2018-01-13T14:01:32.184Z,33.22
2018-01-13T14:03:58.759Z,31.67
2018-01-13T14:06:25.338Z,32.30
2018-01-13T14:08:51.930Z,30.95
2018-01-13T14:11:18.506Z,30.55
2018-01-13T14:13:45.094Z,37.97
2018-01-13T14:16:11.714Z,30.12
2018-01-13T14:18:38.286Z,31.70
2018-01-13T14:21:04.873Z,31.15
2018-01-13T14:23:31.462Z,31.05
2018-01-13T14:25:58.077Z,27.90
2018-01-13T14:28:24.654Z,29.00
2018-01-13T14:30:51.253Z,28.85
2018-01-13T14:33:18.152Z,27.85
2018-01-13T14:35:44.748Z,28.38
2018-01-13T14:38:11.335Z,29.27
2018-01-13T14:40:37.917Z,28.98
2018-01-13T14:43:04.493Z,27.00
2018-01-13T14:45:31.086Z,27.65
2018-01-13T14:47:57.658Z,30.17
2018-01-13T14:50:24.277Z,27.83
2018-01-13T14:52:50.983Z,28.25
2018-01-13T14:55:17.558Z,29.92
2018-01-13T14:57:44.144Z,27.80
2018-01-13T15:00:11.025Z,29.33
2018-01-13T15:02:37.605Z,27.27
2018-01-13T15:05:04.183Z,26.83
2018-01-13T15:07:30.786Z,27.30
2018-01-13T15:09:57.398Z,26.90
2018-01-13T15:12:23.986Z,25.62
2018-01-13T15:14:50.559Z,26.35
2018-01-13T15:17:17.268Z,27.60
2018-01-13T15:19:43.893Z,25.12
2018-01-13T15:22:10.422Z,24.77
2018-01-13T15:24:37.019Z,25.35
2018-01-13T15:27:03.603Z,24.10
2018-01-13T15:29:30.195Z,23.75
2018-01-13T15:31:56.798Z,24.05
2018-01-13T15:34:23.374Z,24.27
2018-01-13T15:36:49.955Z,23.60
2018-01-13T15:39:16.546Z,22.95
2018-01-13T15:41:43.130Z,23.83
2018-01-13T15:44:09.715Z,23.60
2018-01-13T15:46:36.395Z,23.40
2018-01-13T15:49:02.974Z,22.77
2018-01-13T15:51:29.567Z,21.65
2018-01-13T15:53:56.438Z,22.60
2018-01-13T15:56:23.722Z,21.58
2018-01-13T15:58:50.618Z,22.37
2018-01-13T16:01:17.219Z,23.35
2018-01-13T16:03:43.796Z,21.27
2018-01-13T16:06:10.369Z,22.00
2018-01-13T16:08:36.990Z,20.85
2018-01-13T16:11:03.603Z,22.08
2018-01-13T16:13:30.188Z,23.23
2018-01-13T16:15:56.773Z,21.75
2018-01-13T16:18:23.373Z,21.00
2018-01-13T16:20:49.947Z,22.40
2018-01-13T16:23:16.526Z,20.92
2018-01-13T16:25:43.386Z,21.67
2018-01-13T16:28:09.966Z,20.85
2018-01-13T16:30:36.545Z,21.05
2018-01-13T16:33:03.351Z,21.65
2018-01-13T16:35:29.934Z,20.90
2018-01-13T16:37:56.515Z,21.27
2018-01-13T16:40:23.133Z,20.60
2018-01-13T16:42:49.703Z,21.75
2018-01-13T16:45:16.375Z,22.33
2018-01-13T16:47:42.995Z,21.65
2018-01-13T16:50:09.574Z,20.50
2018-01-13T16:52:36.148Z,21.00
2018-01-13T16:55:02.740Z,21.35
2018-01-13T16:57:29.326Z,20.08
2018-01-13T16:59:55.902Z,20.80
2018-01-13T17:02:22.714Z,19.65
2018-01-13T17:04:49.296Z,21.62
2018-01-13T17:07:15.879Z,22.95
2018-01-13T17:09:42.726Z,20.30
2018-01-13T17:12:09.315Z,17.85
2018-01-13T17:14:35.914Z,18.98
2018-01-13T17:17:02.843Z,19.33
2018-01-13T17:19:29.423Z,19.00
2018-01-13T17:21:56.005Z,21.10
2018-01-13T17:24:22.699Z,18.20
2018-01-13T17:26:49.291Z,21.40
2018-01-13T17:29:15.894Z,21.75
2018-01-13T17:31:42.463Z,20.55
2018-01-13T17:34:09.034Z,21.65
2018-01-13T17:36:35.619Z,18.17
2018-01-13T17:39:02.198Z,20.83
2018-01-13T17:41:28.787Z,20.17
2018-01-13T17:43:55.362Z,24.55
2018-01-13T17:46:21.955Z,19.52
2018-01-13T17:48:48.543Z,19.23
2018-01-13T17:51:15.118Z,17.35
2018-01-13T17:53:41.705Z,18.80
2018-01-13T17:56:08.286Z,18.50
2018-01-13T17:58:34.874Z,19.50
2018-01-13T18:01:01.491Z,18.42
2018-01-13T18:03:28.067Z,18.15
2018-01-13T18:05:54.639Z,19.80
2018-01-13T18:08:21.230Z,17.67
2018-01-13T18:10:47.805Z,18.20
2018-01-13T18:13:14.383Z,17.02
2018-01-13T18:15:40.987Z,20.10
2018-01-13T18:18:08.031Z,17.77
2018-01-13T18:20:34.583Z,19.17
2018-01-13T18:23:01.171Z,18.17
2018-01-13T18:25:27.778Z,18.30
2018-01-13T18:27:54.354Z,19.27
2018-01-13T18:30:20.944Z,18.27
2018-01-13T18:32:47.830Z,19.67
2018-01-13T18:35:14.413Z,18.50
2018-01-13T18:37:40.990Z,19.25
2018-01-13T18:40:07.951Z,18.35
2018-01-13T18:42:34.526Z,21.60
2018-01-13T18:45:01.112Z,18.92
2018-01-13T18:47:27.979Z,18.77
2018-01-13T18:49:54.547Z,18.87
2018-01-13T18:52:21.127Z,18.80
2018-01-13T18:54:47.746Z,19.85
2018-01-13T18:57:14.327Z,20.15
2018-01-13T18:59:40.898Z,18.33
2018-01-13T19:02:07.517Z,19.17
2018-01-13T19:04:34.088Z,19.23
2018-01-13T19:07:00.670Z,18.23
2018-01-13T19:09:27.266Z,17.87
2018-01-13T19:11:53.846Z,18.77
2018-01-13T19:14:20.425Z,21.98
2018-01-13T19:16:47.007Z,22.17
2018-01-13T19:19:13.579Z,19.95
2018-01-13T19:21:40.187Z,20.08
2018-01-13T19:24:06.778Z,19.98
2018-01-13T19:26:33.358Z,20.08
2018-01-13T19:28:59.950Z,18.10
2018-01-13T19:31:26.530Z,21.62
2018-01-13T19:33:53.102Z,19.35
2018-01-13T19:36:19.711Z,18.23
2018-01-13T19:38:46.286Z,18.65
2018-01-13T19:41:12.862Z,18.37
2018-01-13T19:43:39.442Z,20.42
2018-01-13T19:46:06.046Z,19.00
2018-01-13T19:48:32.633Z,19.20
2018-01-13T19:50:59.208Z,18.95
2018-01-13T19:53:25.799Z,18.83
2018-01-13T19:55:52.379Z,19.60
2018-01-13T19:58:18.956Z,18.12
2018-01-13T20:00:45.532Z,18.58
2018-01-13T20:03:12.131Z,18.65
2018-01-13T20:05:38.702Z,18.75
2018-01-13T20:08:05.288Z,19.62
2018-01-13T20:10:31.874Z,16.00
2018-01-13T20:12:58.459Z,18.08
2018-01-13T20:15:25.032Z,17.25
2018-01-13T20:17:51.646Z,18.08
2018-01-13T20:20:18.230Z,18.70
2018-01-13T20:22:44.799Z,17.85
2018-01-13T20:25:11.507Z,19.30
2018-01-13T20:27:38.084Z,18.58
2018-01-13T20:30:04.661Z,17.27
2018-01-13T20:32:31.236Z,19.02
2018-01-13T20:34:57.807Z,17.15
2018-01-13T20:37:24.408Z,18.33
2018-01-13T20:39:50.991Z,17.98
2018-01-13T20:42:17.566Z,16.00
2018-01-13T20:44:44.277Z,17.37
2018-01-13T20:47:10.849Z,18.35
2018-01-13T20:49:37.423Z,17.67
2018-01-13T20:52:04.018Z,17.90
2018-01-13T20:54:30.599Z,16.80
2018-01-13T20:56:58.007Z,16.27
2018-01-13T20:59:24.972Z,15.15
2018-01-13T21:01:51.589Z,14.40
2018-01-13T21:04:18.143Z,14.70
2018-01-13T21:06:44.742Z,15.90
2018-01-13T21:09:11.322Z,14.93
2018-01-13T21:11:37.898Z,15.82
2018-01-13T21:14:04.505Z,19.92
2018-01-13T21:16:31.082Z,13.98
2018-01-13T21:18:57.654Z,14.68
2018-01-13T21:21:24.271Z,12.75
2018-01-13T21:23:50.847Z,13.10
2018-01-13T21:26:17.434Z,15.98
2018-01-13T21:28:44.016Z,13.95
2018-01-13T21:31:10.600Z,14.68
2018-01-13T21:33:37.254Z,13.45
2018-01-13T21:36:03.835Z,13.82
2018-01-13T21:38:30.427Z,14.52
2018-01-13T21:40:57.042Z,12.50
2018-01-13T21:43:23.619Z,15.00
2018-01-13T21:45:50.198Z,13.32
2018-01-13T21:48:16.895Z,12.10
2018-01-13T21:50:43.473Z,12.60
2018-01-13T21:53:10.054Z,13.52
2018-01-13T21:55:36.643Z,13.38
2018-01-13T21:58:03.225Z,13.60
2018-01-13T22:00:29.799Z,12.90
2018-01-13T22:02:56.404Z,13.82
2018-01-13T22:05:22.978Z,12.77
2018-01-13T22:07:49.567Z,13.18
2018-01-13T22:10:16.150Z,11.70
2018-01-13T22:12:43.019Z,14.40
2018-01-13T22:15:09.648Z,11.82
2018-01-13T22:17:36.223Z,12.63
2018-01-13T22:20:02.826Z,12.68
2018-01-13T22:22:29.403Z,13.32
2018-01-13T22:24:55.983Z,13.05
2018-01-13T22:27:22.591Z,12.60
2018-01-13T22:29:49.170Z,12.65
2018-01-13T22:32:15.754Z,11.43
2018-01-13T22:34:42.647Z,13.23
2018-01-13T22:37:09.251Z,11.88
2018-01-13T22:39:35.826Z,12.48
2018-01-13T22:42:02.433Z,14.07
2018-01-13T22:44:29.019Z,12.30
2018-01-13T22:46:55.600Z,11.82
2018-01-13T22:49:22.354Z,12.25
2018-01-13T22:51:48.956Z,11.12
2018-01-13T22:54:15.635Z,12.30
2018-01-13T22:56:42.230Z,12.25
2018-01-13T22:59:08.802Z,13.38
2018-01-13T23:01:35.378Z,13.00
2018-01-13T23:04:02.288Z,12.13
2018-01-13T23:06:28.862Z,12.73
2018-01-13T23:08:55.447Z,14.18
2018-01-13T23:13:55.035Z,11.50
2018-01-13T23:16:21.646Z,11.65
2018-01-13T23:18:48.227Z,12.65
2018-01-13T23:21:14.814Z,11.82
2018-01-13T23:23:41.664Z,13.05
2018-01-13T23:26:08.236Z,13.20
2018-01-13T23:28:34.815Z,13.35
2018-01-13T23:31:01.550Z,12.68
2018-01-13T23:33:28.137Z,12.85
2018-01-13T23:35:54.710Z,11.70
2018-01-13T23:38:21.631Z,12.43
2018-01-13T23:40:48.215Z,14.45
2018-01-13T23:43:14.787Z,13.43
2018-01-13T23:45:41.473Z,12.98
2018-01-13T23:48:08.051Z,10.90
2018-01-13T23:50:34.627Z,12.88
2018-01-13T23:53:01.551Z,12.40
2018-01-13T23:55:28.423Z,11.30
2018-01-13T23:57:54.981Z,12.20
